Time;durP1;ratioP1;P1;durP2;ratioP2;P2;SDS_P1;SDS_P2;PMS_P1;PMS_P2;Temp;Humidity;BMP_temperature;BMP_pressure;BME280_temperature;BME280_humidity;BME280_pressure;Samples;Min_cycle;Max_cycle;Signal;HPM_P1;HPM_P2
2022/01/12 00:00:56;;;;;;;29.85;13.55;;;4.90;99.90;;;;;;5072642;28;20020;-58
2022/01/12 00:03:21;;;;;;;27.90;14.07;;;4.90;99.90;;;;;;5072851;28;20025;-57
2022/01/12 00:05:47;;;;;;;29.80;13.93;;;4.90;99.90;;;;;;5071821;28;20391;-60
2022/01/12 00:08:13;;;;;;;28.63;15.05;;;4.90;99.90;;;;;;5072616;28;20497;-58
2022/01/12 00:10:39;;;;;;;31.33;13.27;;;4.90;99.90;;;;;;5073024;28;20461;-59
2022/01/12 00:13:05;;;;;;;25.13;14.15;;;4.90;99.90;;;;;;5072744;28;20219;-59
2022/01/12 00:15:30;;;;;;;27.73;13.73;;;4.90;99.90;;;;;;5072875;28;20025;-60
2022/01/12 00:17:56;;;;;;;25.35;13.75;;;4.90;99.90;;;;;;5072862;28;20066;-60
2022/01/12 00:20:22;;;;;;;28.15;13.82;;;4.90;99.90;;;;;;5071220;28;20033;-57
2022/01/12 00:22:47;;;;;;;29.45;13.00;;;5.00;99.90;;;;;;5072553;28;20365;-59
2022/01/12 00:33:13;;;;;;;31.33;14.38;;;5.00;99.90;;;;;;5072468;28;20035;-59
2022/01/12 00:35:43;;;;;;;28.45;14.43;;;5.00;99.90;;;;;;5072795;28;20090;-59
2022/01/12 00:38:11;;;;;;;25.90;13.60;;;5.00;99.90;;;;;;5072965;28;20025;-59
2022/01/12 00:40:42;;;;;;;34.45;15.50;;;5.00;99.90;;;;;;5072602;28;20024;-59
2022/01/12 00:43:08;;;;;;;;;;;5.00;99.90;;;;;;5072936;28;20366;-57
2022/01/12 00:45:37;;;;;;;38.22;14.75;;;4.90;99.90;;;;;;5072445;28;19911;-58
2022/01/12 00:48:03;;;;;;;32.63;15.32;;;4.90;99.90;;;;;;5072207;28;20111;-59
2022/01/12 00:50:28;;;;;;;31.17;14.35;;;4.90;99.90;;;;;;5072752;28;20378;-59
2022/01/12 00:52:54;;;;;;;27.42;14.13;;;4.90;99.90;;;;;;5072570;28;20035;-59
2022/01/12 00:55:20;;;;;;;39.85;15.98;;;4.80;99.90;;;;;;5072718;28;20028;-57
2022/01/12 00:57:46;;;;;;;29.13;16.20;;;4.80;99.90;;;;;;5072346;28;20095;-57
2022/01/12 01:00:12;;;;;;;35.45;15.85;;;4.80;99.90;;;;;;5072703;28;20040;-60
2022/01/12 01:02:38;;;;;;;36.83;16.52;;;4.80;99.90;;;;;;5070723;28;20410;-57
2022/01/12 01:05:04;;;;;;;33.92;16.55;;;4.80;99.90;;;;;;5072490;28;20092;-58
2022/01/12 01:07:29;;;;;;;33.95;16.02;;;4.70;99.90;;;;;;5072334;28;20485;-60
2022/01/12 01:10:04;;;;;;;36.75;17.48;;;4.70;99.90;;;;;;5072644;28;20035;-60
2022/01/12 01:12:30;;;;;;;30.40;16.27;;;4.70;99.90;;;;;;5072571;28;20036;-60
2022/01/12 01:15:12;;;;;;;32.13;16.45;;;4.70;99.90;;;;;;5072504;28;20111;-60
2022/01/12 01:25:36;;;;;;;36.30;16.67;;;4.60;99.90;;;;;;5076568;28;20040;-60
2022/01/12 01:28:04;;;;;;;35.00;18.08;;;4.50;99.90;;;;;;5076089;28;20492;-58
2022/01/12 01:30:31;;;;;;;41.15;17.58;;;4.50;99.90;;;;;;5075845;28;20405;-60
2022/01/12 01:33:03;;;;;;;39.13;20.23;;;4.50;99.90;;;;;;5075903;28;20028;-60
2022/01/12 01:35:53;;;;;;;37.33;18.20;;;4.50;99.90;;;;;;5075520;28;20036;-59
2022/01/12 01:38:18;;;;;;;37.20;19.33;;;4.40;99.90;;;;;;5075820;28;20338;-60
2022/01/12 01:40:44;;;;;;;35.88;18.95;;;4.50;99.90;;;;;;5075487;28;20035;-60
2022/01/12 01:43:21;;;;;;;44.58;20.77;;;4.50;99.90;;;;;;5075728;28;20024;-60
2022/01/12 01:54:00;;;;;;;46.70;21.25;;;4.30;99.90;;;;;;5075111;28;20039;-58
2022/01/12 01:56:25;;;;;;;39.22;18.90;;;4.30;99.90;;;;;;5074800;28;20034;-59
2022/01/12 01:58:51;;;;;;;41.10;21.38;;;4.30;99.90;;;;;;5074710;28;20016;-58
2022/01/12 02:01:17;;;;;;;52.72;23.05;;;4.30;99.90;;;;;;5074871;28;20020;-58
2022/01/12 02:03:43;;;;;;;41.53;20.92;;;4.20;99.90;;;;;;5074521;28;20025;-58
2022/01/12 02:06:10;;;;;;;46.38;21.40;;;4.20;99.90;;;;;;5074822;28;20029;-59
2022/01/12 02:08:36;;;;;;;43.65;23.35;;;4.20;99.90;;;;;;5075215;28;20021;-59
2022/01/12 02:11:02;;;;;;;44.15;21.88;;;4.10;99.90;;;;;;5074829;28;20075;-59
2022/01/12 02:13:28;;;;;;;48.15;22.73;;;4.10;99.90;;;;;;5074946;28;20420;-59
2022/01/12 02:15:55;;;;;;;50.00;21.88;;;4.20;99.90;;;;;;5074871;28;20433;-59
2022/01/12 02:39:45;;;;;;;47.75;23.83;;;4.30;99.90;;;;;;5074600;28;20443;-59
2022/01/12 02:40:05;;;;;;;45.53;23.55;;;4.20;99.90;;;;;;5074337;28;20055;-59
2022/01/12 02:42:31;;;;;;;47.38;23.20;;;4.30;99.90;;;;;;5073821;28;20021;-59
2022/01/12 02:56:14;;;;;;;43.97;23.73;;;4.20;99.90;;;;;;5073778;28;20103;-58
2022/01/12 02:58:42;;;;;;;45.60;24.20;;;4.30;99.90;;;;;;5073774;28;20094;-57
2022/01/12 03:03:39;;;;;;;52.35;25.35;;;4.20;99.90;;;;;;5073983;28;20024;-58
2022/01/12 03:06:07;;;;;;;52.22;25.67;;;4.30;99.90;;;;;;5073686;28;20024;-59
2022/01/12 03:08:37;;;;;;;52.13;23.92;;;4.20;99.90;;;;;;5073306;28;20016;-57
2022/01/12 03:11:11;;;;;;;56.08;25.30;;;4.30;99.90;;;;;;5073757;28;20382;-59
2022/01/12 03:13:37;;;;;;;55.28;24.83;;;4.20;99.90;;;;;;5073268;28;20024;-59
2022/01/12 03:16:12;;;;;;;56.53;25.88;;;4.20;99.90;;;;;;5073116;28;20481;-57
2022/01/12 03:18:38;;;;;;;58.50;26.83;;;4.20;99.90;;;;;;5072241;28;20058;-59
2022/01/12 03:21:04;;;;;;;61.17;26.92;;;4.20;99.90;;;;;;5073132;28;20044;-58
2022/01/12 03:23:30;;;;;;;63.88;27.25;;;4.20;99.90;;;;;;5071771;28;20024;-55
2022/01/12 03:25:56;;;;;;;61.38;28.73;;;4.20;99.90;;;;;;5073294;28;20028;-59
2022/01/12 03:28:21;;;;;;;55.95;27.35;;;4.20;99.90;;;;;;5072854;28;20028;-59
2022/01/12 03:30:55;;;;;;;71.43;29.08;;;4.10;99.90;;;;;;5073192;28;20473;-59
2022/01/12 03:38:44;;;;;;;87.20;32.15;;;4.10;99.90;;;;;;5072804;28;20043;-59
2022/01/12 03:41:10;;;;;;;84.80;33.05;;;4.10;99.90;;;;;;5072309;28;20025;-59
2022/01/12 03:43:35;;;;;;;78.45;32.42;;;4.10;99.90;;;;;;5072731;28;20497;-59
2022/01/12 03:46:01;;;;;;;79.93;32.45;;;4.10;99.90;;;;;;5072672;28;20374;-56
2022/01/12 03:48:26;;;;;;;76.15;32.47;;;4.20;99.90;;;;;;5072848;28;20035;-58
2022/01/12 03:50:54;;;;;;;82.28;34.15;;;4.20;99.90;;;;;;5072791;28;20044;-59
2022/01/12 03:53:20;;;;;;;84.30;34.13;;;4.20;99.90;;;;;;5072926;28;20028;-58
2022/01/12 03:55:45;;;;;;;83.07;32.50;;;4.20;99.90;;;;;;5071662;28;20408;-58
2022/01/12 03:58:11;;;;;;;81.72;33.67;;;4.20;99.90;;;;;;5072982;28;20029;-59
2022/01/12 04:00:37;;;;;;;78.93;33.28;;;4.30;99.90;;;;;;5073001;28;20060;-59
2022/01/12 04:03:05;;;;;;;80.60;33.90;;;4.20;99.90;;;;;;5073148;28;20103;-58
2022/01/12 04:08:20;;;;;;;88.97;33.05;;;4.20;99.90;;;;;;5073800;28;20029;-59
2022/01/12 04:11:00;;;;;;;85.43;32.75;;;4.00;99.90;;;;;;5073447;28;20041;-58
2022/01/12 04:13:28;;;;;;;84.15;33.90;;;4.00;99.90;;;;;;5073274;28;20024;-58
2022/01/12 04:15:57;;;;;;;88.97;32.97;;;4.00;99.90;;;;;;5073603;28;20021;-58
2022/01/12 04:18:22;;;;;;;86.13;34.33;;;4.00;99.90;;;;;;5072702;28;20020;-57
2022/01/12 04:20:50;;;;;;;80.65;31.35;;;4.10;99.90;;;;;;5072432;28;20450;-58
2022/01/12 04:23:19;;;;;;;84.15;33.40;;;4.10;99.90;;;;;;5073138;28;20032;-59
2022/01/12 04:25:51;;;;;;;83.80;33.85;;;4.10;99.90;;;;;;5072640;28;20056;-58
2022/01/12 04:28:19;;;;;;;76.30;30.48;;;4.10;99.90;;;;;;5072910;28;20055;-59
2022/01/12 04:30:45;;;;;;;78.47;30.48;;;4.10;99.90;;;;;;5072560;28;20446;-59
2022/01/12 04:33:11;;;;;;;89.63;34.17;;;4.20;99.90;;;;;;5072515;28;20390;-59
2022/01/12 04:35:44;;;;;;;85.60;33.85;;;4.20;99.90;;;;;;5072302;28;20122;-59
2022/01/12 04:38:10;;;;;;;86.93;33.63;;;4.30;99.90;;;;;;5071824;28;20416;-59
2022/01/12 04:40:36;;;;;;;68.50;28.17;;;4.30;99.90;;;;;;5072620;28;20085;-58
2022/01/12 04:43:02;;;;;;;75.90;28.88;;;4.30;99.90;;;;;;5072402;28;20051;-57
2022/01/12 04:50:19;;;;;;;76.15;30.10;;;4.30;99.90;;;;;;5072554;28;20432;-58
2022/01/12 04:52:45;;;;;;;75.32;30.40;;;4.20;99.90;;;;;;5074448;28;20397;-57
2022/01/12 04:55:10;;;;;;;78.85;31.30;;;4.30;99.90;;;;;;5076184;28;20039;-59
2022/01/12 04:57:36;;;;;;;84.25;31.35;;;4.30;99.90;;;;;;5074663;28;20029;-60
2022/01/12 05:00:13;;;;;;;79.88;31.08;;;4.30;99.90;;;;;;5076079;28;20435;-58
2022/01/12 05:13:23;;;;;;;67.90;28.02;;;4.20;99.90;;;;;;5075524;28;20537;-60
2022/01/12 05:15:49;;;;;;;78.75;30.38;;;4.30;99.90;;;;;;5075673;28;20032;-60
2022/01/12 05:18:14;;;;;;;66.40;29.05;;;4.30;99.90;;;;;;5076016;28;20481;-59
2022/01/12 05:20:40;;;;;;;62.13;28.05;;;4.20;99.90;;;;;;5095204;22;20111;-70
2022/01/12 05:23:05;;;;;;;64.03;27.95;;;4.30;99.90;;;;;;5039700;28;20025;-71
2022/01/12 05:25:31;;;;;;;69.88;29.95;;;4.30;99.90;;;;;;5057738;28;20021;-72
2022/01/12 05:27:56;;;;;;;73.07;28.63;;;4.30;99.90;;;;;;5058566;28;20078;-71
2022/01/12 05:30:22;;;;;;;69.97;28.13;;;4.30;99.90;;;;;;5058519;28;20017;-71
2022/01/12 05:32:48;;;;;;;64.30;28.13;;;4.40;99.90;;;;;;5057972;28;20517;-71
2022/01/12 05:35:17;;;;;;;67.70;27.55;;;4.40;99.90;;;;;;5057740;28;20326;-72
2022/01/12 05:37:44;;;;;;;72.95;28.65;;;4.30;99.90;;;;;;5039261;28;20025;-72
2022/01/12 05:40:11;;;;;;;64.45;28.70;;;4.30;99.90;;;;;;5057650;28;20077;-72
2022/01/12 05:42:37;;;;;;;68.30;28.48;;;4.30;99.90;;;;;;5060568;28;20029;-72
2022/01/12 05:45:06;;;;;;;66.95;28.95;;;4.40;99.90;;;;;;5056842;28;20028;-72
2022/01/12 05:50:04;;;;;;;73.45;28.65;;;4.40;99.90;;;;;;5058059;28;20024;-72
2022/01/12 05:52:30;;;;;;;68.70;28.25;;;4.40;99.90;;;;;;5057779;28;20033;-72
2022/01/12 05:54:55;;;;;;;72.93;30.42;;;4.40;99.90;;;;;;5057522;28;20033;-72
2022/01/12 05:57:21;;;;;;;65.13;26.95;;;4.40;99.90;;;;;;5057952;28;20020;-72
2022/01/12 05:59:46;;;;;;;71.75;29.83;;;4.40;99.90;;;;;;5058354;28;20184;-72
2022/01/12 06:02:12;;;;;;;76.68;29.00;;;4.40;99.90;;;;;;5068447;28;20127;-71
2022/01/12 06:04:38;;;;;;;69.43;28.65;;;4.40;99.90;;;;;;5067945;28;20056;-72
2022/01/12 06:07:04;;;;;;;76.15;28.60;;;4.40;99.90;;;;;;5057306;28;20099;-71
2022/01/12 06:09:29;;;;;;;70.45;28.48;;;4.30;99.90;;;;;;5055957;28;20033;-72
2022/01/12 06:11:55;;;;;;;69.15;28.35;;;4.40;99.90;;;;;;5056821;28;20493;-72
2022/01/12 06:14:21;;;;;;;85.85;31.80;;;4.40;99.90;;;;;;5057053;28;20045;-71
2022/01/12 06:16:47;;;;;;;71.03;29.45;;;4.40;99.90;;;;;;5045207;28;20031;-70
2022/01/12 06:19:12;;;;;;;76.60;31.88;;;4.40;99.90;;;;;;5048003;28;20021;-70
2022/01/12 06:21:38;;;;;;;72.97;29.98;;;4.30;99.90;;;;;;5049254;28;20032;-72
2022/01/12 06:24:04;;;;;;;66.68;28.35;;;4.30;99.90;;;;;;5055891;28;20036;-71
2022/01/12 06:26:29;;;;;;;70.72;29.08;;;4.30;99.90;;;;;;5054909;28;20025;-71
2022/01/12 06:31:42;;;;;;;79.88;29.35;;;4.30;99.90;;;;;;5043640;28;20044;-71
2022/01/12 06:34:08;;;;;;;76.53;31.45;;;4.40;99.90;;;;;;5043017;28;20029;-72
2022/01/12 06:36:34;;;;;;;74.00;29.58;;;4.40;99.90;;;;;;5045673;28;20095;-71
2022/01/12 06:38:59;;;;;;;71.70;29.63;;;4.30;99.90;;;;;;5026421;28;20220;-71
2022/01/12 06:41:25;;;;;;;75.32;30.30;;;4.40;99.90;;;;;;5044572;28;20013;-71
2022/01/12 06:43:52;;;;;;;72.45;29.23;;;4.40;99.90;;;;;;5046657;28;20056;-72
2022/01/12 06:46:23;;;;;;;73.60;31.55;;;4.40;99.90;;;;;;5046494;28;20013;-71
2022/01/12 06:48:49;;;;;;;87.65;32.50;;;4.30;99.90;;;;;;5043568;28;20364;-71
2022/01/12 06:51:14;;;;;;;78.45;30.75;;;4.30;99.90;;;;;;5044858;28;20030;-74
2022/01/12 06:53:40;;;;;;;77.50;31.58;;;4.30;99.90;;;;;;5042629;28;20021;-71
2022/01/12 06:56:08;;;;;;;74.13;30.38;;;4.30;99.90;;;;;;5043575;28;20446;-71
2022/01/12 06:58:33;;;;;;;83.53;29.05;;;4.30;99.90;;;;;;5044570;28;20025;-71
2022/01/12 07:00:59;;;;;;;82.90;29.35;;;4.30;99.90;;;;;;5030540;28;20025;-71
2022/01/12 07:03:25;;;;;;;87.07;31.98;;;4.30;99.90;;;;;;5044343;28;20489;-71
2022/01/12 07:05:50;;;;;;;79.28;30.40;;;4.30;99.90;;;;;;5044112;28;20022;-71
2022/01/12 07:08:16;;;;;;;77.05;31.20;;;4.30;99.90;;;;;;5045700;28;20024;-72
2022/01/12 07:10:41;;;;;;;85.57;30.90;;;4.30;99.90;;;;;;5027829;28;20462;-72
2022/01/12 07:13:10;;;;;;;76.68;29.80;;;4.30;99.90;;;;;;5046133;28;20056;-72
2022/01/12 07:15:37;;;;;;;80.20;31.40;;;4.30;99.90;;;;;;5044981;28;20021;-71
2022/01/12 07:18:04;;;;;;;84.30;31.23;;;4.30;99.90;;;;;;5044685;28;20025;-72
2022/01/12 07:20:29;;;;;;;80.05;30.98;;;4.30;99.90;;;;;;5029053;28;20067;-71
2022/01/12 07:22:55;;;;;;;81.43;31.90;;;4.30;99.90;;;;;;5041568;28;20470;-72
2022/01/12 07:25:21;;;;;;;87.63;30.58;;;4.30;99.90;;;;;;5049985;28;20043;-71
2022/01/12 07:27:46;;;;;;;78.68;32.38;;;4.30;99.90;;;;;;5056381;28;20035;-72
2022/01/12 07:30:12;;;;;;;90.55;32.38;;;4.30;99.90;;;;;;5056126;28;20037;-71
2022/01/12 07:32:37;;;;;;;80.35;30.40;;;4.30;99.90;;;;;;5038748;28;20061;-71
2022/01/12 07:35:05;;;;;;;79.47;31.67;;;4.40;99.90;;;;;;5057964;28;20029;-71
2022/01/12 07:37:31;;;;;;;89.32;32.15;;;4.40;99.90;;;;;;5060006;28;20033;-71
2022/01/12 07:39:57;;;;;;;90.15;32.08;;;4.40;99.90;;;;;;5061063;28;20024;-72
2022/01/12 07:42:23;;;;;;;87.10;29.98;;;4.40;99.90;;;;;;5063121;28;20025;-71
2022/01/12 07:44:49;;;;;;;81.32;31.50;;;4.40;99.90;;;;;;5060652;28;20394;-71
2022/01/12 07:47:15;;;;;;;91.45;35.17;;;4.40;99.90;;;;;;5055125;28;20029;-71
2022/01/12 07:49:40;;;;;;;88.75;31.25;;;4.40;99.90;;;;;;5054786;28;20128;-71
2022/01/12 07:52:06;;;;;;;96.57;32.13;;;4.40;99.90;;;;;;5036304;28;20025;-71
2022/01/12 07:54:32;;;;;;;86.57;31.63;;;4.40;99.90;;;;;;5054619;28;20440;-71
2022/01/12 07:56:58;;;;;;;91.28;32.45;;;4.40;99.90;;;;;;5054638;28;20108;-71
2022/01/12 07:59:24;;;;;;;86.57;31.15;;;4.40;99.90;;;;;;5036804;28;20471;-71
2022/01/12 08:01:49;;;;;;;86.25;33.55;;;4.40;99.90;;;;;;5059556;28;20029;-70
2022/01/12 08:04:16;;;;;;;89.95;33.38;;;4.50;99.90;;;;;;5070537;28;20054;-70
2022/01/12 08:06:42;;;;;;;93.32;32.42;;;4.40;99.90;;;;;;5053931;28;20474;-69
2022/01/12 08:09:07;;;;;;;94.90;33.85;;;4.40;99.90;;;;;;5046435;28;20032;-71
2022/01/12 08:11:34;;;;;;;91.15;33.58;;;4.30;99.90;;;;;;5040655;28;20021;-71
2022/01/12 08:13:59;;;;;;;99.80;33.38;;;4.40;99.90;;;;;;5040510;28;20033;-71
2022/01/12 08:16:25;;;;;;;92.05;32.58;;;4.40;99.90;;;;;;5044691;28;20031;-70
2022/01/12 08:18:51;;;;;;;97.55;33.20;;;4.40;99.90;;;;;;5033331;28;20029;-72
2022/01/12 08:21:16;;;;;;;92.30;32.47;;;4.50;99.90;;;;;;5036160;28;20100;-71
2022/01/12 08:23:42;;;;;;;90.25;35.00;;;4.40;99.90;;;;;;5038734;28;20577;-71
2022/01/12 08:26:07;;;;;;;92.95;32.67;;;4.40;99.90;;;;;;5047745;28;20093;-71
2022/01/12 08:28:34;;;;;;;88.03;32.75;;;4.40;99.90;;;;;;5049716;28;20523;-71
2022/01/12 08:30:59;;;;;;;91.43;34.67;;;4.40;99.90;;;;;;5043396;28;20438;-70
2022/01/12 08:33:26;;;;;;;84.53;32.50;;;4.40;99.90;;;;;;5045754;28;20039;-72
2022/01/12 08:35:53;;;;;;;89.28;32.05;;;4.40;99.90;;;;;;5047957;28;20504;-71
2022/01/12 08:38:18;;;;;;;96.30;31.88;;;4.50;99.90;;;;;;5045612;28;20391;-71
2022/01/12 08:40:44;;;;;;;88.57;32.05;;;4.50;99.90;;;;;;5030150;28;20017;-72
2022/01/12 08:43:10;;;;;;;90.22;33.50;;;4.60;99.90;;;;;;5045883;28;20516;-71
2022/01/12 08:45:35;;;;;;;85.35;32.80;;;4.60;99.90;;;;;;5046673;28;20021;-71
2022/01/12 08:48:01;;;;;;;89.85;34.10;;;4.70;99.90;;;;;;5045706;28;20104;-71
2022/01/12 08:50:27;;;;;;;87.25;30.95;;;4.70;99.90;;;;;;5048500;28;20071;-71
2022/01/12 08:52:52;;;;;;;80.20;30.60;;;4.70;99.90;;;;;;5047690;28;20038;-71
2022/01/12 08:55:21;;;;;;;83.05;30.83;;;4.70;99.90;;;;;;5047145;28;20029;-71
2022/01/12 08:57:47;;;;;;;82.93;31.52;;;4.80;99.90;;;;;;5043068;28;20025;-71
2022/01/12 09:00:15;;;;;;;79.03;31.40;;;4.80;99.90;;;;;;5030675;28;20017;-71
2022/01/12 09:02:41;;;;;;;83.55;31.77;;;4.80;99.90;;;;;;5048163;28;20384;-71
2022/01/12 09:05:07;;;;;;;84.20;30.85;;;4.70;99.90;;;;;;5047538;28;20010;-71
2022/01/12 09:07:33;;;;;;;78.60;30.77;;;4.70;99.90;;;;;;5046677;28;20032;-72
2022/01/12 09:09:59;;;;;;;75.72;29.25;;;4.70;99.90;;;;;;5046915;28;20021;-72
2022/01/12 09:12:25;;;;;;;80.32;30.85;;;4.80;99.90;;;;;;5043919;28;20139;-71
2022/01/12 09:14:52;;;;;;;82.13;30.83;;;4.70;99.90;;;;;;5059838;28;20032;-72
2022/01/12 09:17:21;;;;;;;81.05;31.10;;;4.70;99.90;;;;;;5052534;28;20055;-72
2022/01/12 09:19:48;;;;;;;88.38;32.05;;;4.80;99.90;;;;;;5047880;28;20099;-72
2022/01/12 09:22:14;;;;;;;83.05;32.75;;;4.90;99.90;;;;;;5043030;28;20052;-72
2022/01/12 09:24:44;;;;;;;79.65;33.35;;;4.80;99.90;;;;;;5039624;28;20022;-72
2022/01/12 09:27:10;;;;;;;86.88;32.95;;;4.80;99.90;;;;;;5039929;28;20036;-74
2022/01/12 09:29:36;;;;;;;87.07;31.80;;;4.90;99.90;;;;;;5039546;28;20089;-74
2022/01/12 09:32:02;;;;;;;80.35;31.35;;;5.00;99.90;;;;;;5037886;28;20032;-74
2022/01/12 09:34:28;;;;;;;78.00;31.10;;;5.10;99.90;;;;;;5038458;28;20026;-72
2022/01/12 09:36:53;;;;;;;88.43;31.15;;;5.10;99.90;;;;;;5037029;28;20037;-73
2022/01/12 09:39:19;;;;;;;78.70;32.30;;;5.10;99.90;;;;;;5021119;28;20026;-72
2022/01/12 09:41:45;;;;;;;81.32;30.73;;;5.20;99.90;;;;;;5039002;28;20407;-73
2022/01/12 09:44:15;;;;;;;82.03;30.88;;;5.20;99.90;;;;;;5037854;28;20026;-72
2022/01/12 09:46:42;;;;;;;87.78;31.30;;;5.20;99.90;;;;;;5038772;28;20036;-74
2022/01/12 09:49:08;;;;;;;79.55;31.10;;;5.20;99.90;;;;;;5039945;28;20056;-73
2022/01/12 09:51:34;;;;;;;84.00;31.27;;;5.20;99.90;;;;;;5037322;28;20025;-74
2022/01/12 09:53:59;;;;;;;86.25;30.90;;;5.20;99.90;;;;;;5037443;28;20053;-72
2022/01/12 09:56:30;;;;;;;88.70;32.13;;;5.30;99.90;;;;;;5037240;28;20029;-73
2022/01/12 09:58:58;;;;;;;91.47;34.05;;;5.30;99.90;;;;;;5037267;28;20372;-72
2022/01/12 10:01:36;;;;;;;86.03;31.90;;;5.30;99.90;;;;;;5038466;28;20053;-73
2022/01/12 10:04:18;;;;;;;80.95;30.83;;;5.30;99.90;;;;;;5052344;28;20032;-72
2022/01/12 10:06:53;;;;;;;91.00;34.05;;;5.30;99.90;;;;;;5042859;28;20095;-72
2022/01/12 10:09:33;;;;;;;86.53;31.17;;;5.20;99.90;;;;;;5036783;28;20034;-72
2022/01/12 10:12:01;;;;;;;83.50;32.05;;;5.20;99.90;;;;;;5037162;28;20394;-72
2022/01/12 10:14:39;;;;;;;88.32;31.33;;;5.20;99.90;;;;;;5037343;28;20031;-71
2022/01/12 10:17:05;;;;;;;90.00;32.85;;;5.10;99.90;;;;;;5036892;28;20452;-72
2022/01/12 10:19:34;;;;;;;84.20;31.50;;;5.20;99.90;;;;;;5037295;28;20018;-72
2022/01/12 10:22:03;;;;;;;88.05;28.45;;;5.30;99.90;;;;;;5036664;28;20037;-72
2022/01/12 10:24:29;;;;;;;76.55;27.27;;;5.30;99.90;;;;;;5037159;28;20045;-72
2022/01/12 10:26:56;;;;;;;73.97;27.58;;;5.30;99.90;;;;;;5037294;28;20033;-72
2022/01/12 10:29:24;;;;;;;64.78;25.38;;;5.40;99.90;;;;;;5037419;28;20026;-74
2022/01/12 10:31:53;;;;;;;70.10;28.15;;;5.40;99.90;;;;;;5037395;28;20079;-71
2022/01/12 10:34:30;;;;;;;76.53;28.50;;;5.40;99.90;;;;;;5037162;28;20040;-72
2022/01/12 10:36:57;;;;;;;74.85;28.35;;;5.40;99.90;;;;;;5038462;28;20025;-72
2022/01/12 10:39:26;;;;;;;76.55;26.02;;;5.40;99.90;;;;;;5037566;28;20021;-71
2022/01/12 10:41:58;;;;;;;67.70;26.23;;;5.50;99.90;;;;;;5038251;28;20029;-72
2022/01/12 10:44:27;;;;;;;73.18;27.38;;;5.50;99.90;;;;;;5040785;28;20021;-71
2022/01/12 10:47:12;;;;;;;67.65;24.70;;;5.50;99.90;;;;;;5038886;28;20021;-72
2022/01/12 10:49:45;;;;;;;66.32;26.42;;;5.60;99.90;;;;;;5036584;28;20405;-72
2022/01/12 10:52:13;;;;;;;73.30;26.90;;;5.70;99.90;;;;;;5037493;28;20033;-72
2022/01/12 10:54:46;;;;;;;63.17;26.50;;;5.70;99.90;;;;;;5037020;28;20029;-71
2022/01/12 10:57:29;;;;;;;64.10;24.63;;;5.80;99.90;;;;;;5038253;28;20108;-71
2022/01/12 11:00:06;;;;;;;60.97;24.42;;;5.80;99.90;;;;;;5037401;28;20017;-74
2022/01/12 11:02:33;;;;;;;57.63;25.02;;;5.90;99.90;;;;;;5037505;28;20024;-71
2022/01/12 11:05:00;;;;;;;63.25;23.67;;;5.90;99.90;;;;;;5038181;28;20035;-72
2022/01/12 11:07:26;;;;;;;54.30;23.60;;;6.00;99.90;;;;;;5038684;28;20085;-72
2022/01/12 11:09:59;;;;;;;57.72;22.85;;;6.00;99.90;;;;;;5019762;28;20120;-72
2022/01/12 11:12:25;;;;;;;59.97;23.95;;;6.10;99.90;;;;;;5039226;28;20021;-73
2022/01/12 11:14:52;;;;;;;58.50;24.70;;;6.10;99.90;;;;;;5038783;28;20029;-72
2022/01/12 11:17:18;;;;;;;62.70;24.02;;;6.10;99.90;;;;;;5037919;28;20117;-73
2022/01/12 11:20:09;;;;;;;59.03;23.30;;;6.10;99.90;;;;;;5038658;28;20045;-71
2022/01/12 11:22:41;;;;;;;58.17;21.73;;;6.10;99.90;;;;;;5037321;28;20029;-71
2022/01/12 11:25:21;;;;;;;52.17;22.30;;;6.20;99.90;;;;;;5037331;28;20041;-72
2022/01/12 11:27:51;;;;;;;60.13;23.60;;;6.20;99.90;;;;;;5037871;28;20112;-71
2022/01/12 11:30:22;;;;;;;62.92;24.40;;;6.30;99.90;;;;;;5037330;28;20359;-71
2022/01/12 11:32:56;;;;;;;56.08;22.73;;;6.40;99.90;;;;;;5036903;28;20058;-71
2022/01/12 11:35:27;;;;;;;58.33;22.98;;;6.40;99.90;;;;;;5020343;28;20052;-72
2022/01/12 11:37:57;;;;;;;56.67;21.98;;;6.40;99.90;;;;;;5024532;28;20033;-73
2022/01/12 11:40:38;;;;;;;57.03;23.07;;;6.40;99.90;;;;;;5082916;23;20051;-68
2022/01/12 11:43:25;;;;;;;56.03;24.65;;;6.50;99.90;;;;;;5079354;28;20306;-68
2022/01/12 11:46:07;;;;;;;57.28;23.08;;;6.50;99.90;;;;;;5073502;28;20052;-68
2022/01/12 11:48:42;;;;;;;59.53;23.67;;;6.70;99.90;;;;;;5055269;28;20025;-68
2022/01/12 11:51:08;;;;;;;59.70;23.00;;;6.70;99.90;;;;;;5056154;28;20495;-67
2022/01/12 11:53:45;;;;;;;54.63;22.23;;;6.70;99.90;;;;;;5073475;28;20115;-67
2022/01/12 11:56:13;;;;;;;58.55;22.02;;;6.70;99.90;;;;;;5073037;28;20035;-67
2022/01/12 11:59:08;;;;;;;61.10;23.13;;;6.60;99.90;;;;;;5054746;28;20027;-68
2022/01/12 12:01:40;;;;;;;54.72;21.75;;;6.70;99.90;;;;;;5073047;28;20024;-68
2022/01/12 12:04:08;;;;;;;51.10;18.90;;;6.80;99.90;;;;;;5072774;28;20421;-67
2022/01/12 12:06:35;;;;;;;52.40;18.27;;;6.80;99.90;;;;;;5073413;28;20017;-67
2022/01/12 12:09:09;;;;;;;45.90;19.77;;;6.80;99.90;;;;;;5073101;28;20417;-69
2022/01/12 12:11:34;;;;;;;43.05;18.17;;;6.80;99.90;;;;;;5072842;28;20029;-69
2022/01/12 12:14:03;;;;;;;49.60;18.10;;;6.70;99.90;;;;;;5073017;28;20104;-69
2022/01/12 12:16:29;;;;;;;36.38;15.98;;;6.70;99.90;;;;;;5072719;28;20021;-69
2022/01/12 12:18:56;;;;;;;47.58;18.35;;;6.70;99.90;;;;;;5073599;28;20020;-70
2022/01/12 12:21:22;;;;;;;45.42;20.02;;;6.70;99.90;;;;;;5055174;28;20021;-69
2022/01/12 12:23:48;;;;;;;46.97;17.77;;;6.70;99.90;;;;;;5073903;28;20412;-70
2022/01/12 12:26:18;;;;;;;52.05;19.95;;;6.80;99.90;;;;;;5055177;28;20016;-70
2022/01/12 12:28:52;;;;;;;53.20;18.42;;;6.80;99.90;;;;;;5056692;28;20063;-70
2022/01/12 12:31:26;;;;;;;53.03;19.48;;;6.90;99.90;;;;;;5074013;28;20029;-70
2022/01/12 12:34:05;;;;;;;49.17;19.00;;;7.00;99.90;;;;;;5055637;28;20032;-70
2022/01/12 12:36:32;;;;;;;43.42;17.83;;;7.10;99.90;;;;;;5074164;28;20384;-70
2022/01/12 12:39:12;;;;;;;49.08;19.67;;;7.10;99.90;;;;;;5072876;28;20017;-70
2022/01/12 12:41:43;;;;;;;52.50;20.45;;;7.20;99.90;;;;;;5073130;28;20032;-70
2022/01/12 12:44:27;;;;;;;51.08;19.58;;;7.20;99.90;;;;;;5073684;28;20051;-70
2022/01/12 12:47:09;;;;;;;47.47;18.23;;;7.20;99.90;;;;;;5073609;28;20055;-69
2022/01/12 12:49:56;;;;;;;44.78;17.17;;;7.20;99.90;;;;;;5079472;28;20330;-70
2022/01/12 12:52:25;;;;;;;38.60;14.68;;;7.30;99.90;;;;;;5057232;28;20036;-70
2022/01/12 12:54:52;;;;;;;42.08;14.27;;;7.30;99.90;;;;;;5074439;28;20039;-70
2022/01/12 12:57:21;;;;;;;43.03;14.25;;;7.30;99.90;;;;;;5072753;28;20031;-70
2022/01/12 13:00:13;;;;;;;38.72;13.50;;;7.30;99.90;;;;;;5072465;28;20055;-71
2022/01/12 13:02:45;;;;;;;34.72;11.07;;;7.40;99.90;;;;;;5072449;28;20362;-70
2022/01/12 13:05:14;;;;;;;28.35;9.38;;;7.40;99.90;;;;;;5073539;28;20020;-70
2022/01/12 13:07:42;;;;;;;24.02;8.32;;;7.50;99.90;;;;;;5073215;28;20024;-69
2022/01/12 13:10:13;;;;;;;29.30;8.82;;;7.50;99.90;;;;;;5072517;28;20511;-70
2022/01/12 13:12:39;;;;;;;29.75;9.00;;;7.50;99.90;;;;;;5073402;28;20354;-70
2022/01/12 13:15:10;;;;;;;28.75;10.07;;;7.60;99.90;;;;;;5076193;28;20489;-70
2022/01/12 13:17:39;;;;;;;32.17;9.05;;;7.60;99.90;;;;;;5075832;28;20028;-70
2022/01/12 13:22:40;;;;;;;35.45;10.55;;;7.60;99.90;;;;;;5076232;28;20056;-69
2022/01/12 13:25:09;;;;;;;40.30;10.50;;;7.50;99.90;;;;;;5075720;28;20066;-70
2022/01/12 13:27:36;;;;;;;26.10;10.05;;;7.40;99.90;;;;;;5076072;28;20108;-69
2022/01/12 13:30:06;;;;;;;36.22;11.15;;;7.40;99.90;;;;;;5075899;28;20108;-72
2022/01/12 13:32:32;;;;;;;30.75;10.80;;;7.40;99.90;;;;;;5057786;28;20082;-70
2022/01/12 13:35:01;;;;;;;39.25;12.55;;;7.40;99.90;;;;;;5075742;28;20449;-70
2022/01/12 13:37:27;;;;;;;42.33;11.50;;;7.40;99.90;;;;;;5075444;28;20099;-70
2022/01/12 13:40:32;;;;;;;36.70;12.85;;;7.40;99.90;;;;;;5075290;28;20026;-70
2022/01/12 13:43:00;;;;;;;31.27;11.32;;;7.30;99.90;;;;;;5034975;28;20111;-70
2022/01/12 13:45:36;;;;;;;30.05;11.27;;;7.30;99.90;;;;;;5075592;28;20017;-69
2022/01/12 13:48:11;;;;;;;30.88;11.70;;;7.30;99.90;;;;;;5075427;28;20029;-70
2022/01/12 13:50:37;;;;;;;36.55;13.85;;;7.30;99.90;;;;;;5057635;28;20028;-70
2022/01/12 13:53:06;;;;;;;38.10;13.93;;;7.30;99.90;;;;;;5075739;28;20040;-71
2022/01/12 13:55:33;;;;;;;38.05;13.95;;;7.30;99.90;;;;;;5075594;28;20481;-70
2022/01/12 13:58:06;;;;;;;32.85;13.50;;;7.30;99.90;;;;;;5079020;28;20028;-70
2022/01/12 14:00:35;;;;;;;41.10;13.40;;;7.20;99.90;;;;;;5076803;28;20056;-70
2022/01/12 14:03:12;;;;;;;35.92;14.90;;;7.30;99.90;;;;;;5076023;28;20116;-70
2022/01/12 14:05:39;;;;;;;38.25;15.38;;;7.30;99.90;;;;;;5075875;28;20020;-69
2022/01/12 14:08:13;;;;;;;31.83;14.77;;;7.40;99.90;;;;;;5075787;28;20024;-71
2022/01/12 14:10:41;;;;;;;39.65;15.05;;;7.30;99.90;;;;;;5075728;28;20035;-69
2022/01/12 14:13:07;;;;;;;39.80;14.68;;;7.30;99.90;;;;;;5075494;28;20021;-70